sensor_id;sensor_type;location;lat;lon;timestamp;P1;durP1;ratioP1;P2;durP2;ratioP2
76310;SDS011;65120;59.304;18.294;2022-11-12T12:40:16;3.92;;;0.63;;
76310;SDS011;65120;59.304;18.294;2022-11-12T12:42:49;7.22;;;0.93;;
76310;SDS011;65120;59.304;18.294;2022-11-12T12:45:29;8.32;;;0.80;;
76310;SDS011;65120;59.304;18.294;2022-11-12T12:48:01;14.13;;;0.80;;
76310;SDS011;65120;59.304;18.294;2022-11-12T12:50:33;8.50;;;1.10;;
76310;SDS011;65120;59.304;18.294;2022-11-12T12:53:04;8.00;;;0.82;;
76310;SDS011;65120;59.304;18.294;2022-11-12T12:55:43;10.73;;;1.70;;
76310;SDS011;65120;59.304;18.294;2022-11-12T12:58:15;9.93;;;0.60;;
76310;SDS011;65120;59.304;18.294;2022-11-12T13:00:45;7.38;;;0.63;;
76310;SDS011;65120;59.304;18.294;2022-11-12T13:06:15;10.25;;;1.45;;
76310;SDS011;65120;59.304;18.294;2022-11-12T13:08:50;9.60;;;0.90;;
76310;SDS011;65120;59.304;18.294;2022-11-12T13:14:43;8.70;;;1.23;;
76310;SDS011;65120;59.304;18.294;2022-11-12T13:17:41;6.30;;;1.27;;
76310;SDS011;65120;59.304;18.294;2022-11-12T13:23:00;5.63;;;0.80;;
76310;SDS011;65120;59.304;18.294;2022-11-12T13:25:28;7.72;;;1.25;;
76310;SDS011;65120;59.304;18.294;2022-11-12T13:28:04;9.35;;;1.48;;
76310;SDS011;65120;59.304;18.294;2022-11-12T13:33:23;4.95;;;0.60;;
76310;SDS011;65120;59.304;18.294;2022-11-12T13:38:50;16.97;;;1.20;;
76310;SDS011;65120;59.304;18.294;2022-11-12T13:41:18;7.25;;;1.15;;
76310;SDS011;65120;59.304;18.294;2022-11-12T13:44:11;9.60;;;1.58;;
76310;SDS011;65120;59.304;18.294;2022-11-12T13:46:41;10.23;;;1.25;;
76310;SDS011;65120;59.304;18.294;2022-11-12T13:49:09;3.70;;;0.60;;
76310;SDS011;65120;59.304;18.294;2022-11-12T13:51:39;5.63;;;0.55;;
76310;SDS011;65120;59.304;18.294;2022-11-12T13:54:28;8.90;;;0.50;;
76310;SDS011;65120;59.304;18.294;2022-11-12T13:57:11;7.93;;;0.47;;
76310;SDS011;65120;59.304;18.294;2022-11-12T13:59:41;3.97;;;0.50;;
76310;SDS011;65120;59.304;18.294;2022-11-12T14:02:18;7.10;;;0.70;;
76310;SDS011;65120;59.304;18.294;2022-11-12T14:04:48;8.65;;;0.57;;
76310;SDS011;65120;59.304;18.294;2022-11-12T14:07:22;7.93;;;0.80;;
76310;SDS011;65120;59.304;18.294;2022-11-12T14:17:52;6.65;;;0.70;;
76310;SDS011;65120;59.304;18.294;2022-11-12T14:20:31;3.88;;;0.77;;
76310;SDS011;65120;59.304;18.294;2022-11-12T14:23:08;5.35;;;1.02;;
76310;SDS011;65120;59.304;18.294;2022-11-12T14:25:44;12.70;;;0.73;;
76310;SDS011;65120;59.304;18.294;2022-11-12T14:28:22;6.15;;;1.70;;
76310;SDS011;65120;59.304;18.294;2022-11-12T14:30:51;17.73;;;4.93;;
76310;SDS011;65120;59.304;18.294;2022-11-12T14:33:20;25.75;;;8.70;;
76310;SDS011;65120;59.304;18.294;2022-11-12T14:35:48;29.30;;;8.43;;
76310;SDS011;65120;59.304;18.294;2022-11-12T14:38:17;29.40;;;9.13;;
76310;SDS011;65120;59.304;18.294;2022-11-12T14:40:47;35.88;;;9.95;;
76310;SDS011;65120;59.304;18.294;2022-11-12T14:43:17;24.95;;;6.93;;
76310;SDS011;65120;59.304;18.294;2022-11-12T14:45:48;8.23;;;1.63;;
76310;SDS011;65120;59.304;18.294;2022-11-12T14:48:15;8.40;;;0.88;;
76310;SDS011;65120;59.304;18.294;2022-11-12T14:50:44;7.78;;;1.40;;
76310;SDS011;65120;59.304;18.294;2022-11-12T14:53:14;14.57;;;3.40;;
76310;SDS011;65120;59.304;18.294;2022-11-12T14:55:47;23.70;;;5.85;;
76310;SDS011;65120;59.304;18.294;2022-11-12T14:58:17;75.30;;;22.17;;
76310;SDS011;65120;59.304;18.294;2022-11-12T15:00:46;67.07;;;19.67;;
76310;SDS011;65120;59.304;18.294;2022-11-12T15:03:16;20.25;;;4.82;;
76310;SDS011;65120;59.304;18.294;2022-11-12T15:05:53;19.60;;;6.20;;
76310;SDS011;65120;59.304;18.294;2022-11-12T15:08:28;13.20;;;3.45;;
76310;SDS011;65120;59.304;18.294;2022-11-12T15:10:57;5.72;;;1.00;;
76310;SDS011;65120;59.304;18.294;2022-11-12T15:13:44;3.05;;;0.60;;
76310;SDS011;65120;59.304;18.294;2022-11-12T15:16:15;7.00;;;0.93;;
76310;SDS011;65120;59.304;18.294;2022-11-12T15:18:49;4.43;;;0.80;;
76310;SDS011;65120;59.304;18.294;2022-11-12T15:21:29;1.73;;;0.30;;
76310;SDS011;65120;59.304;18.294;2022-11-12T15:23:58;4.82;;;1.05;;
76310;SDS011;65120;59.304;18.294;2022-11-12T15:26:32;3.08;;;1.27;;
76310;SDS011;65120;59.304;18.294;2022-11-12T15:29:01;5.85;;;0.40;;
76310;SDS011;65120;59.304;18.294;2022-11-12T15:31:42;4.50;;;0.40;;
76310;SDS011;65120;59.304;18.294;2022-11-12T15:34:26;6.22;;;0.90;;
76310;SDS011;65120;59.304;18.294;2022-11-12T15:36:57;3.47;;;0.90;;
76310;SDS011;65120;59.304;18.294;2022-11-12T15:39:27;8.63;;;0.95;;
76310;SDS011;65120;59.304;18.294;2022-11-12T15:41:56;6.15;;;0.45;;
76310;SDS011;65120;59.304;18.294;2022-11-12T15:44:24;3.90;;;0.57;;
76310;SDS011;65120;59.304;18.294;2022-11-12T15:46:54;3.65;;;0.50;;
76310;SDS011;65120;59.304;18.294;2022-11-12T15:49:22;7.10;;;0.68;;
76310;SDS011;65120;59.304;18.294;2022-11-12T15:51:50;5.43;;;0.50;;
76310;SDS011;65120;59.304;18.294;2022-11-12T15:54:18;6.05;;;1.25;;
76310;SDS011;65120;59.304;18.294;2022-11-12T15:56:45;4.93;;;0.50;;
76310;SDS011;65120;59.304;18.294;2022-11-12T15:59:13;4.70;;;0.55;;
76310;SDS011;65120;59.304;18.294;2022-11-12T16:01:42;7.55;;;1.85;;
76310;SDS011;65120;59.304;18.294;2022-11-12T16:04:09;44.85;;;17.73;;
76310;SDS011;65120;59.304;18.294;2022-11-12T16:06:37;10.55;;;4.13;;
76310;SDS011;65120;59.304;18.294;2022-11-12T16:09:04;10.80;;;3.83;;
76310;SDS011;65120;59.304;18.294;2022-11-12T16:11:32;15.23;;;7.18;;
76310;SDS011;65120;59.304;18.294;2022-11-12T16:14:03;10.93;;;4.68;;
76310;SDS011;65120;59.304;18.294;2022-11-12T16:16:33;7.30;;;1.50;;
76310;SDS011;65120;59.304;18.294;2022-11-12T16:19:00;7.05;;;0.82;;
76310;SDS011;65120;59.304;18.294;2022-11-12T16:21:27;6.65;;;0.68;;
76310;SDS011;65120;59.304;18.294;2022-11-12T16:23:54;6.32;;;0.82;;
76310;SDS011;65120;59.304;18.294;2022-11-12T16:26:23;2.58;;;0.50;;
76310;SDS011;65120;59.304;18.294;2022-11-12T16:28:55;3.50;;;0.68;;
76310;SDS011;65120;59.304;18.294;2022-11-12T16:31:22;6.13;;;0.40;;
76310;SDS011;65120;59.304;18.294;2022-11-12T16:33:49;3.08;;;0.80;;
76310;SDS011;65120;59.304;18.294;2022-11-12T16:36:17;7.03;;;0.38;;
76310;SDS011;65120;59.304;18.294;2022-11-12T16:38:44;5.53;;;0.70;;
76310;SDS011;65120;59.304;18.294;2022-11-12T16:41:12;2.60;;;0.60;;
76310;SDS011;65120;59.304;18.294;2022-11-12T16:43:39;5.72;;;0.50;;
76310;SDS011;65120;59.304;18.294;2022-11-12T16:46:13;5.18;;;0.30;;
76310;SDS011;65120;59.304;18.294;2022-11-12T16:48:45;3.13;;;0.65;;
76310;SDS011;65120;59.304;18.294;2022-11-12T16:51:13;4.57;;;0.60;;
76310;SDS011;65120;59.304;18.294;2022-11-12T16:53:42;4.18;;;0.50;;
76310;SDS011;65120;59.304;18.294;2022-11-12T16:56:10;4.70;;;0.77;;
76310;SDS011;65120;59.304;18.294;2022-11-12T16:58:39;5.55;;;0.68;;
76310;SDS011;65120;59.304;18.294;2022-11-12T17:01:06;2.72;;;0.50;;
76310;SDS011;65120;59.304;18.294;2022-11-12T17:03:39;1.83;;;0.40;;
76310;SDS011;65120;59.304;18.294;2022-11-12T17:06:06;4.95;;;0.50;;
76310;SDS011;65120;59.304;18.294;2022-11-12T17:08:33;5.43;;;0.70;;
76310;SDS011;65120;59.304;18.294;2022-11-12T17:11:04;3.95;;;0.80;;
76310;SDS011;65120;59.304;18.294;2022-11-12T17:13:33;4.15;;;0.50;;
76310;SDS011;65120;59.304;18.294;2022-11-12T17:16:01;5.18;;;0.60;;
76310;SDS011;65120;59.304;18.294;2022-11-12T17:18:28;7.82;;;1.60;;
76310;SDS011;65120;59.304;18.294;2022-11-12T17:20:56;6.65;;;1.95;;
76310;SDS011;65120;59.304;18.294;2022-11-12T17:23:31;4.55;;;0.40;;
76310;SDS011;65120;59.304;18.294;2022-11-12T17:25:58;2.72;;;0.77;;
76310;SDS011;65120;59.304;18.294;2022-11-12T17:28:26;12.10;;;0.80;;
76310;SDS011;65120;59.304;18.294;2022-11-12T17:31:00;2.47;;;0.40;;
76310;SDS011;65120;59.304;18.294;2022-11-12T17:33:28;2.20;;;0.30;;
76310;SDS011;65120;59.304;18.294;2022-11-12T17:36:00;7.10;;;0.90;;
76310;SDS011;65120;59.304;18.294;2022-11-12T17:38:28;4.18;;;0.40;;
76310;SDS011;65120;59.304;18.294;2022-11-12T17:40:55;1.73;;;0.70;;
76310;SDS011;65120;59.304;18.294;2022-11-12T17:43:22;7.03;;;0.40;;
76310;SDS011;65120;59.304;18.294;2022-11-12T17:45:49;8.18;;;0.70;;
76310;SDS011;65120;59.304;18.294;2022-11-12T17:48:16;8.82;;;0.80;;
76310;SDS011;65120;59.304;18.294;2022-11-12T17:50:43;5.85;;;0.60;;
76310;SDS011;65120;59.304;18.294;2022-11-12T17:53:11;8.23;;;0.60;;
76310;SDS011;65120;59.304;18.294;2022-11-12T17:55:38;13.60;;;1.33;;
76310;SDS011;65120;59.304;18.294;2022-11-12T17:58:05;4.35;;;0.82;;
76310;SDS011;65120;59.304;18.294;2022-11-12T18:00:32;5.22;;;0.63;;
76310;SDS011;65120;59.304;18.294;2022-11-12T18:02:59;5.40;;;0.70;;
76310;SDS011;65120;59.304;18.294;2022-11-12T18:05:26;5.30;;;0.90;;
76310;SDS011;65120;59.304;18.294;2022-11-12T18:07:53;2.22;;;0.73;;
76310;SDS011;65120;59.304;18.294;2022-11-12T18:10:21;4.38;;;0.70;;
76310;SDS011;65120;59.304;18.294;2022-11-12T18:12:49;9.02;;;1.10;;
76310;SDS011;65120;59.304;18.294;2022-11-12T18:15:17;3.80;;;0.90;;
76310;SDS011;65120;59.304;18.294;2022-11-12T18:17:44;6.40;;;1.05;;
76310;SDS011;65120;59.304;18.294;2022-11-12T18:20:11;5.72;;;0.93;;
76310;SDS011;65120;59.304;18.294;2022-11-12T18:22:38;5.80;;;0.85;;
76310;SDS011;65120;59.304;18.294;2022-11-12T18:25:05;9.70;;;2.20;;
76310;SDS011;65120;59.304;18.294;2022-11-12T18:27:34;5.90;;;1.00;;
76310;SDS011;65120;59.304;18.294;2022-11-12T18:30:01;6.18;;;0.70;;
76310;SDS011;65120;59.304;18.294;2022-11-12T18:32:28;6.13;;;1.25;;
76310;SDS011;65120;59.304;18.294;2022-11-12T18:34:55;9.18;;;1.83;;
76310;SDS011;65120;59.304;18.294;2022-11-12T18:37:22;6.15;;;1.00;;
76310;SDS011;65120;59.304;18.294;2022-11-12T18:39:49;6.05;;;1.08;;
76310;SDS011;65120;59.304;18.294;2022-11-12T18:42:16;6.70;;;1.05;;
76310;SDS011;65120;59.304;18.294;2022-11-12T18:44:44;6.20;;;1.45;;
76310;SDS011;65120;59.304;18.294;2022-11-12T18:47:11;4.40;;;1.20;;
76310;SDS011;65120;59.304;18.294;2022-11-12T18:49:38;5.25;;;1.65;;
76310;SDS011;65120;59.304;18.294;2022-11-12T18:52:05;12.32;;;1.95;;
76310;SDS011;65120;59.304;18.294;2022-11-12T18:54:32;6.22;;;1.92;;
76310;SDS011;65120;59.304;18.294;2022-11-12T18:56:59;5.07;;;1.30;;
76310;SDS011;65120;59.304;18.294;2022-11-12T18:59:26;4.80;;;0.90;;
76310;SDS011;65120;59.304;18.294;2022-11-12T19:01:56;9.38;;;1.30;;
76310;SDS011;65120;59.304;18.294;2022-11-12T19:04:23;7.20;;;0.90;;
76310;SDS011;65120;59.304;18.294;2022-11-12T19:06:50;6.70;;;1.08;;
76310;SDS011;65120;59.304;18.294;2022-11-12T19:09:17;7.15;;;0.98;;
76310;SDS011;65120;59.304;18.294;2022-11-12T19:11:44;3.72;;;1.23;;
76310;SDS011;65120;59.304;18.294;2022-11-12T19:14:11;4.68;;;1.38;;
76310;SDS011;65120;59.304;18.294;2022-11-12T19:16:38;7.78;;;1.60;;
76310;SDS011;65120;59.304;18.294;2022-11-12T19:19:10;5.32;;;1.13;;
76310;SDS011;65120;59.304;18.294;2022-11-12T19:21:39;3.47;;;0.98;;
76310;SDS011;65120;59.304;18.294;2022-11-12T19:24:06;7.43;;;1.35;;
76310;SDS011;65120;59.304;18.294;2022-11-12T19:26:33;5.93;;;1.58;;
76310;SDS011;65120;59.304;18.294;2022-11-12T19:29:00;6.05;;;1.30;;
76310;SDS011;65120;59.304;18.294;2022-11-12T19:31:27;7.20;;;1.65;;
76310;SDS011;65120;59.304;18.294;2022-11-12T19:33:54;8.05;;;1.50;;
76310;SDS011;65120;59.304;18.294;2022-11-12T19:36:23;7.85;;;1.20;;
76310;SDS011;65120;59.304;18.294;2022-11-12T19:38:54;6.38;;;0.93;;
76310;SDS011;65120;59.304;18.294;2022-11-12T19:41:22;6.65;;;1.80;;
76310;SDS011;65120;59.304;18.294;2022-11-12T19:43:50;8.15;;;2.35;;
76310;SDS011;65120;59.304;18.294;2022-11-12T19:46:17;4.93;;;1.17;;
76310;SDS011;65120;59.304;18.294;2022-11-12T19:48:45;6.85;;;2.17;;
76310;SDS011;65120;59.304;18.294;2022-11-12T19:51:12;5.35;;;1.33;;
76310;SDS011;65120;59.304;18.294;2022-11-12T19:53:41;10.82;;;1.52;;
76310;SDS011;65120;59.304;18.294;2022-11-12T19:56:10;7.90;;;1.42;;
76310;SDS011;65120;59.304;18.294;2022-11-12T19:58:38;6.07;;;1.20;;
76310;SDS011;65120;59.304;18.294;2022-11-12T20:01:05;5.35;;;1.73;;
76310;SDS011;65120;59.304;18.294;2022-11-12T20:03:34;6.28;;;1.20;;
76310;SDS011;65120;59.304;18.294;2022-11-12T20:06:01;3.13;;;1.08;;
76310;SDS011;65120;59.304;18.294;2022-11-12T20:08:29;8.63;;;2.33;;
76310;SDS011;65120;59.304;18.294;2022-11-12T20:10:57;8.60;;;1.40;;
76310;SDS011;65120;59.304;18.294;2022-11-12T20:13:25;8.48;;;2.58;;
76310;SDS011;65120;59.304;18.294;2022-11-12T20:15:52;9.65;;;1.80;;
76310;SDS011;65120;59.304;18.294;2022-11-12T20:18:19;5.05;;;1.58;;
76310;SDS011;65120;59.304;18.294;2022-11-12T20:20:47;6.35;;;1.52;;
76310;SDS011;65120;59.304;18.294;2022-11-12T20:23:15;4.95;;;1.40;;
76310;SDS011;65120;59.304;18.294;2022-11-12T20:25:42;9.13;;;1.83;;
76310;SDS011;65120;59.304;18.294;2022-11-12T20:28:10;5.30;;;1.13;;
76310;SDS011;65120;59.304;18.294;2022-11-12T20:30:37;6.63;;;1.95;;
76310;SDS011;65120;59.304;18.294;2022-11-12T20:33:04;5.60;;;1.63;;
76310;SDS011;65120;59.304;18.294;2022-11-12T20:35:32;4.80;;;1.38;;
76310;SDS011;65120;59.304;18.294;2022-11-12T20:38:01;8.77;;;1.45;;
76310;SDS011;65120;59.304;18.294;2022-11-12T20:40:29;3.92;;;1.13;;
76310;SDS011;65120;59.304;18.294;2022-11-12T20:42:56;4.90;;;1.17;;
76310;SDS011;65120;59.304;18.294;2022-11-12T20:45:24;10.25;;;1.02;;
76310;SDS011;65120;59.304;18.294;2022-11-12T20:47:53;7.45;;;1.55;;
76310;SDS011;65120;59.304;18.294;2022-11-12T20:50:20;7.50;;;1.17;;
76310;SDS011;65120;59.304;18.294;2022-11-12T20:52:47;5.18;;;1.25;;
76310;SDS011;65120;59.304;18.294;2022-11-12T20:55:14;6.88;;;1.30;;
76310;SDS011;65120;59.304;18.294;2022-11-12T20:57:41;9.25;;;1.52;;
76310;SDS011;65120;59.304;18.294;2022-11-12T21:00:08;6.00;;;1.02;;
76310;SDS011;65120;59.304;18.294;2022-11-12T21:02:38;4.47;;;1.27;;
76310;SDS011;65120;59.304;18.294;2022-11-12T21:05:05;4.38;;;1.00;;
76310;SDS011;65120;59.304;18.294;2022-11-12T21:07:32;6.55;;;1.00;;
76310;SDS011;65120;59.304;18.294;2022-11-12T21:09:59;5.82;;;1.70;;
76310;SDS011;65120;59.304;18.294;2022-11-12T21:12:26;9.13;;;1.30;;
76310;SDS011;65120;59.304;18.294;2022-11-12T21:14:53;8.32;;;1.40;;
76310;SDS011;65120;59.304;18.294;2022-11-12T21:17:20;6.25;;;1.30;;
76310;SDS011;65120;59.304;18.294;2022-11-12T21:19:48;4.70;;;1.90;;
76310;SDS011;65120;59.304;18.294;2022-11-12T21:22:15;5.22;;;1.13;;
76310;SDS011;65120;59.304;18.294;2022-11-12T21:24:42;5.50;;;1.10;;
76310;SDS011;65120;59.304;18.294;2022-11-12T21:27:09;5.20;;;1.20;;
76310;SDS011;65120;59.304;18.294;2022-11-12T21:29:38;4.32;;;1.00;;
76310;SDS011;65120;59.304;18.294;2022-11-12T21:32:05;6.45;;;0.98;;
76310;SDS011;65120;59.304;18.294;2022-11-12T21:34:32;9.60;;;1.30;;
76310;SDS011;65120;59.304;18.294;2022-11-12T21:37:00;5.00;;;1.15;;
76310;SDS011;65120;59.304;18.294;2022-11-12T21:39:27;6.78;;;1.17;;
76310;SDS011;65120;59.304;18.294;2022-11-12T21:41:54;4.65;;;0.88;;
76310;SDS011;65120;59.304;18.294;2022-11-12T21:44:21;7.15;;;1.30;;
76310;SDS011;65120;59.304;18.294;2022-11-12T21:46:48;5.07;;;0.90;;
76310;SDS011;65120;59.304;18.294;2022-11-12T21:49:14;3.42;;;1.00;;
76310;SDS011;65120;59.304;18.294;2022-11-12T21:51:41;6.25;;;0.90;;
76310;SDS011;65120;59.304;18.294;2022-11-12T21:54:10;5.07;;;1.00;;
76310;SDS011;65120;59.304;18.294;2022-11-12T21:56:39;6.18;;;1.02;;
76310;SDS011;65120;59.304;18.294;2022-11-12T21:59:06;4.70;;;0.90;;
76310;SDS011;65120;59.304;18.294;2022-11-12T22:01:33;6.78;;;1.00;;
76310;SDS011;65120;59.304;18.294;2022-11-12T22:04:03;4.88;;;1.27;;
76310;SDS011;65120;59.304;18.294;2022-11-12T22:06:30;4.43;;;0.80;;
76310;SDS011;65120;59.304;18.294;2022-11-12T22:09:01;3.90;;;0.75;;
76310;SDS011;65120;59.304;18.294;2022-11-12T22:11:30;5.85;;;1.33;;
76310;SDS011;65120;59.304;18.294;2022-11-12T22:13:57;3.30;;;1.50;;
76310;SDS011;65120;59.304;18.294;2022-11-12T22:16:25;4.72;;;1.17;;
76310;SDS011;65120;59.304;18.294;2022-11-12T22:18:54;5.43;;;1.10;;
76310;SDS011;65120;59.304;18.294;2022-11-12T22:21:22;4.15;;;0.90;;
76310;SDS011;65120;59.304;18.294;2022-11-12T22:23:50;4.95;;;0.90;;
76310;SDS011;65120;59.304;18.294;2022-11-12T22:26:18;4.47;;;0.75;;
76310;SDS011;65120;59.304;18.294;2022-11-12T22:28:49;7.75;;;0.95;;
76310;SDS011;65120;59.304;18.294;2022-11-12T22:31:17;2.67;;;0.82;;
76310;SDS011;65120;59.304;18.294;2022-11-12T22:33:45;4.25;;;0.80;;
76310;SDS011;65120;59.304;18.294;2022-11-12T22:36:13;7.65;;;1.08;;
76310;SDS011;65120;59.304;18.294;2022-11-12T22:38:42;2.85;;;0.77;;
76310;SDS011;65120;59.304;18.294;2022-11-12T22:41:10;5.03;;;0.90;;
76310;SDS011;65120;59.304;18.294;2022-11-12T22:43:38;5.85;;;0.80;;
76310;SDS011;65120;59.304;18.294;2022-11-12T22:46:08;1.55;;;0.65;;
76310;SDS011;65120;59.304;18.294;2022-11-12T22:48:37;2.78;;;0.70;;
76310;SDS011;65120;59.304;18.294;2022-11-12T22:51:04;5.28;;;0.70;;
76310;SDS011;65120;59.304;18.294;2022-11-12T22:53:33;5.10;;;0.80;;
76310;SDS011;65120;59.304;18.294;2022-11-12T22:56:00;8.70;;;1.05;;
76310;SDS011;65120;59.304;18.294;2022-11-12T22:58:28;2.38;;;0.50;;
76310;SDS011;65120;59.304;18.294;2022-11-12T23:00:55;5.15;;;0.55;;
76310;SDS011;65120;59.304;18.294;2022-11-12T23:03:23;2.33;;;0.82;;
76310;SDS011;65120;59.304;18.294;2022-11-12T23:05:55;6.78;;;0.88;;
76310;SDS011;65120;59.304;18.294;2022-11-12T23:08:22;6.75;;;1.00;;
76310;SDS011;65120;59.304;18.294;2022-11-12T23:10:50;5.38;;;0.93;;
76310;SDS011;65120;59.304;18.294;2022-11-12T23:13:17;3.40;;;0.50;;
76310;SDS011;65120;59.304;18.294;2022-11-12T23:15:44;7.40;;;1.20;;
76310;SDS011;65120;59.304;18.294;2022-11-12T23:18:12;5.82;;;0.60;;
76310;SDS011;65120;59.304;18.294;2022-11-12T23:20:40;2.53;;;0.50;;
76310;SDS011;65120;59.304;18.294;2022-11-12T23:23:07;5.68;;;1.20;;
76310;SDS011;65120;59.304;18.294;2022-11-12T23:25:34;6.18;;;0.60;;
76310;SDS011;65120;59.304;18.294;2022-11-12T23:28:02;1.70;;;0.80;;
76310;SDS011;65120;59.304;18.294;2022-11-12T23:30:31;2.08;;;0.60;;
76310;SDS011;65120;59.304;18.294;2022-11-12T23:32:59;3.42;;;0.50;;
76310;SDS011;65120;59.304;18.294;2022-11-12T23:35:26;3.38;;;0.50;;
76310;SDS011;65120;59.304;18.294;2022-11-12T23:37:54;3.78;;;0.68;;
76310;SDS011;65120;59.304;18.294;2022-11-12T23:40:21;6.93;;;1.83;;
76310;SDS011;65120;59.304;18.294;2022-11-12T23:42:48;4.30;;;0.50;;
76310;SDS011;65120;59.304;18.294;2022-11-12T23:45:15;5.97;;;0.80;;
76310;SDS011;65120;59.304;18.294;2022-11-12T23:47:42;5.88;;;0.70;;
76310;SDS011;65120;59.304;18.294;2022-11-12T23:50:09;5.35;;;1.00;;
76310;SDS011;65120;59.304;18.294;2022-11-12T23:52:36;4.20;;;0.70;;
76310;SDS011;65120;59.304;18.294;2022-11-12T23:55:05;2.33;;;0.45;;
76310;SDS011;65120;59.304;18.294;2022-11-12T23:57:32;2.42;;;0.68;;
76310;SDS011;65120;59.304;18.294;2022-11-12T23:59:59;1.60;;;0.40;;
